createdAt,value
2017-06-26T00:00:46.416Z,70.86
2017-06-26T00:01:46.402Z,70.09
2017-06-26T00:02:46.401Z,69.9
2017-06-26T00:03:46.397Z,70.54
2017-06-26T00:04:46.396Z,70.67
2017-06-26T00:05:46.390Z,70.57
2017-06-26T00:06:46.383Z,70.67
2017-06-26T00:07:46.380Z,70.67
2017-06-26T00:08:46.380Z,70.35
2017-06-26T00:09:46.374Z,70.86
2017-06-26T00:10:46.066Z,70.76
2017-06-26T00:11:46.370Z,70.96
2017-06-26T00:12:46.362Z,71.05
2017-06-26T00:13:46.356Z,70.57
2017-06-26T00:14:46.355Z,70.67
2017-06-26T00:15:46.352Z,70.96
2017-06-26T00:16:46.349Z,71.05
2017-06-26T00:17:46.344Z,70.29
2017-06-26T00:18:46.340Z,70.29
2017-06-26T00:19:46.342Z,70.76
2017-06-26T00:20:46.329Z,70.48
2017-06-26T00:21:46.327Z,70.35
2017-06-26T00:22:46.021Z,71.05
2017-06-26T00:23:46.319Z,71.05
2017-06-26T00:24:46.320Z,70.96
2017-06-26T00:25:46.312Z,70.76
2017-06-26T00:26:46.307Z,70.76
2017-06-26T00:27:46.305Z,70.76
2017-06-26T00:28:46.303Z,70.76
2017-06-26T00:29:46.295Z,70.38
2017-06-26T00:30:46.295Z,70.38
2017-06-26T00:31:46.290Z,70.48
2017-06-26T00:32:46.284Z,70.67
2017-06-26T00:33:46.282Z,70.44
2017-06-26T00:34:46.279Z,70.76
2017-06-26T00:35:46.275Z,70.86
2017-06-26T00:36:46.271Z,70.67
2017-06-26T00:37:46.271Z,70.86
2017-06-26T00:38:46.263Z,70.67
2017-06-26T00:39:46.256Z,70.67
2017-06-26T00:40:46.253Z,70.57
2017-06-26T00:41:46.249Z,70.76
2017-06-26T00:42:46.247Z,70.76
2017-06-26T00:43:46.274Z,70.76
2017-06-26T00:44:46.246Z,70.86
2017-06-26T00:45:46.239Z,71.05
2017-06-26T00:46:46.233Z,70.57
2017-06-26T00:47:46.228Z,70.64
2017-06-26T00:48:46.223Z,70.57
2017-06-26T00:49:46.219Z,70.67
2017-06-26T00:50:46.218Z,70.67
2017-06-26T00:51:46.212Z,70.38
2017-06-26T00:52:46.210Z,70.64
2017-06-26T00:53:46.235Z,70.35
2017-06-26T00:54:46.203Z,70.57
2017-06-26T00:55:46.198Z,70.86
2017-06-26T00:56:46.195Z,70.96
2017-06-26T00:57:46.189Z,71.05
2017-06-26T00:58:46.184Z,71.05
2017-06-26T00:59:46.180Z,70.67
2017-06-26T01:00:46.178Z,70.86
2017-06-26T01:01:46.172Z,70.76
2017-06-26T01:02:46.170Z,70.86
2017-06-26T01:03:46.170Z,70.57
2017-06-26T01:04:46.164Z,70.86
2017-06-26T01:05:45.857Z,70.38
2017-06-26T01:06:46.156Z,70.67
2017-06-26T01:07:46.154Z,70.29
2017-06-26T01:08:46.149Z,70.38
2017-06-26T01:09:46.145Z,70.86
2017-06-26T01:10:46.140Z,70.29
2017-06-26T01:11:46.138Z,70.67
2017-06-26T01:12:46.134Z,70.67
2017-06-26T01:13:46.132Z,70.96
2017-06-26T01:14:46.127Z,70.29
2017-06-26T01:15:46.122Z,70.67
2017-06-26T01:16:46.123Z,70.73
2017-06-26T01:17:46.113Z,70.92
2017-06-26T01:18:46.113Z,70.44
2017-06-26T01:19:46.107Z,70.54
2017-06-26T01:20:46.103Z,70.64
2017-06-26T01:21:46.102Z,70.83
2017-06-26T01:22:46.094Z,70.92
2017-06-26T01:23:45.788Z,71.11
2017-06-26T01:24:46.089Z,70.73
2017-06-26T01:25:46.087Z,71.02
2017-06-26T01:26:46.083Z,70.44
2017-06-26T01:27:46.080Z,70.64
2017-06-26T01:28:46.072Z,70.44
2017-06-26T01:29:46.070Z,70.15
2017-06-26T01:30:46.064Z,70.54
2017-06-26T01:31:45.758Z,70.83
2017-06-26T01:32:46.058Z,70.64
2017-06-26T01:33:46.053Z,70.64
2017-06-26T01:34:45.745Z,70.73
2017-06-26T01:35:46.064Z,71.02
2017-06-26T01:36:45.739Z,71.11
2017-06-26T01:37:46.034Z,71.69
2017-06-26T01:38:46.031Z,71.78
2017-06-26T01:39:46.027Z,71.02
2017-06-26T01:40:46.029Z,71.31
2017-06-26T01:41:46.025Z,71.4
2017-06-26T01:42:46.016Z,71.69
2017-06-26T01:43:46.011Z,71.78
2017-06-26T01:44:45.704Z,71.5
2017-06-26T01:45:46.002Z,71.4
2017-06-26T01:46:46.002Z,71.88
2017-06-26T01:47:45.998Z,71.4
2017-06-26T01:48:45.992Z,71.59
2017-06-26T01:49:45.993Z,71.59
2017-06-26T01:50:45.985Z,71.5
2017-06-26T01:51:45.980Z,71.31
2017-06-26T01:52:45.981Z,71.69
2017-06-26T01:53:45.974Z,71.69
2017-06-26T01:54:45.969Z,71.5
2017-06-26T01:55:45.967Z,71.5
2017-06-26T01:56:45.962Z,71.5
2017-06-26T01:57:45.954Z,71.5
2017-06-26T01:58:45.952Z,71.5
2017-06-26T01:59:45.949Z,71.31
2017-06-26T02:00:45.946Z,71.4
2017-06-26T02:01:45.637Z,71.5
2017-06-26T02:02:45.935Z,71.5
2017-06-26T02:03:45.931Z,71.4
2017-06-26T02:04:45.928Z,71.59
2017-06-26T02:05:45.923Z,71.31
2017-06-26T02:06:45.918Z,71.59
2017-06-26T02:07:45.913Z,71.31
2017-06-26T02:08:45.910Z,71.5
2017-06-26T02:09:45.907Z,71.4
2017-06-26T02:10:45.901Z,71.5
2017-06-26T02:11:45.924Z,71.59
2017-06-26T02:12:45.897Z,71.69
2017-06-26T02:13:45.889Z,71.31
2017-06-26T02:14:45.887Z,71.88
2017-06-26T02:15:45.886Z,71.78
2017-06-26T02:16:45.880Z,72.07
2017-06-26T02:17:45.873Z,72.17
2017-06-26T02:18:45.871Z,71.69
2017-06-26T02:19:45.869Z,71.69
2017-06-26T02:20:45.867Z,71.5
2017-06-26T02:21:45.866Z,71.4
2017-06-26T02:22:45.856Z,71.31
2017-06-26T02:23:45.850Z,71.4
2017-06-26T02:24:45.848Z,71.78
2017-06-26T02:25:45.841Z,71.5
2017-06-26T02:26:45.868Z,71.5
2017-06-26T02:27:45.835Z,71.31
2017-06-26T02:28:45.831Z,71.4
2017-06-26T02:29:45.831Z,71.21
2017-06-26T02:30:45.828Z,71.59
2017-06-26T02:31:45.819Z,71.4
2017-06-26T02:32:45.813Z,71.88
2017-06-26T02:33:45.809Z,71.69
2017-06-26T02:34:45.808Z,71.69
2017-06-26T02:35:45.827Z,71.78
2017-06-26T02:36:45.800Z,71.5
2017-06-26T02:37:45.796Z,71.5
2017-06-26T02:38:45.794Z,71.59
2017-06-26T02:39:45.786Z,71.5
2017-06-26T02:40:45.783Z,71.59
2017-06-26T02:41:45.478Z,71.88
2017-06-26T02:42:45.778Z,71.69
2017-06-26T02:43:45.469Z,71.78
2017-06-26T02:44:45.465Z,71.69
2017-06-26T02:45:45.763Z,71.69
2017-06-26T02:46:45.760Z,71.69
2017-06-26T02:47:45.758Z,71.78
2017-06-26T02:48:45.753Z,71.59
2017-06-26T02:49:45.749Z,72.07
2017-06-26T02:50:45.444Z,72.27
2017-06-26T02:51:45.741Z,71.88
2017-06-26T02:52:45.735Z,72.36
2017-06-26T02:53:45.732Z,72.45
2017-06-26T02:54:45.729Z,71.88
2017-06-26T02:55:45.726Z,72.01
2017-06-26T02:56:45.722Z,72.11
2017-06-26T02:57:45.717Z,72.11
2017-06-26T02:58:45.717Z,71.82
2017-06-26T02:59:45.707Z,71.69
2017-06-26T03:00:45.705Z,71.63
2017-06-26T03:01:45.698Z,71.25
2017-06-26T03:02:45.697Z,71.5
2017-06-26T03:03:45.695Z,71.59
2017-06-26T03:04:45.692Z,71.34
2017-06-26T03:05:45.725Z,70.92
2017-06-26T03:06:45.685Z,71.11
2017-06-26T03:07:45.678Z,71.4
2017-06-26T03:08:45.672Z,71.59
2017-06-26T03:09:45.668Z,71.4
2017-06-26T03:10:45.669Z,71.69
2017-06-26T03:11:45.661Z,71.59
2017-06-26T03:12:45.656Z,71.31
2017-06-26T03:13:45.351Z,71.5
2017-06-26T03:14:45.650Z,71.5
2017-06-26T03:15:45.343Z,71.78
2017-06-26T03:16:45.642Z,71.21
2017-06-26T03:17:45.638Z,71.21
2017-06-26T03:18:45.637Z,71.4
2017-06-26T03:19:45.634Z,71.31
2017-06-26T03:20:45.325Z,71.69
2017-06-26T03:21:45.624Z,71.78
2017-06-26T03:22:45.620Z,71.69
2017-06-26T03:23:45.614Z,71.69
2017-06-26T03:24:45.645Z,71.72
2017-06-26T03:25:45.608Z,71.72
2017-06-26T03:26:45.604Z,71.63
2017-06-26T03:27:45.600Z,71.34
2017-06-26T03:28:45.595Z,71.34
2017-06-26T03:29:45.594Z,71.34
2017-06-26T03:30:45.587Z,71.5
2017-06-26T03:31:45.585Z,71.34
2017-06-26T03:32:45.580Z,71.53
2017-06-26T03:33:45.578Z,71.34
2017-06-26T03:34:45.575Z,71.72
2017-06-26T03:35:45.569Z,71.11
2017-06-26T03:36:45.564Z,71.34
2017-06-26T03:37:45.560Z,71.92
2017-06-26T03:38:45.558Z,72.3
2017-06-26T03:39:45.554Z,71.53
2017-06-26T03:40:45.573Z,71.25
2017-06-26T03:41:45.544Z,71.72
2017-06-26T03:42:45.545Z,71.63
2017-06-26T03:43:45.538Z,71.72
2017-06-26T03:44:45.533Z,71.72
2017-06-26T03:45:45.528Z,71.72
2017-06-26T03:46:45.526Z,71.92
2017-06-26T03:47:45.526Z,71.44
2017-06-26T03:48:45.521Z,71.34
2017-06-26T03:49:45.520Z,71.53
2017-06-26T03:50:45.208Z,71.34
2017-06-26T03:51:45.510Z,71.44
2017-06-26T03:52:45.527Z,71.53
2017-06-26T03:53:45.503Z,71.53
2017-06-26T03:54:45.496Z,71.76
2017-06-26T03:55:45.493Z,71.76
2017-06-26T03:56:45.491Z,71.37
2017-06-26T03:57:45.487Z,71.47
2017-06-26T03:58:45.483Z,71.76
2017-06-26T03:59:45.480Z,71.19
2017-06-26T04:00:45.474Z,71.57
2017-06-26T04:01:45.472Z,71.57
2017-06-26T04:02:45.469Z,71.66
2017-06-26T04:03:45.464Z,71.66
2017-06-26T04:04:45.159Z,70.8
2017-06-26T04:05:45.457Z,71.09
2017-06-26T04:06:45.455Z,71.09
2017-06-26T04:07:45.449Z,70.61
2017-06-26T04:08:45.446Z,71.09
2017-06-26T04:09:45.447Z,70.9
2017-06-26T04:10:45.440Z,70.99
2017-06-26T04:11:45.438Z,70.9
2017-06-26T04:12:45.438Z,71.09
2017-06-26T04:13:45.451Z,70.55
2017-06-26T04:14:45.426Z,70.93
2017-06-26T04:15:45.424Z,70.55
2017-06-26T04:16:45.420Z,70.74
2017-06-26T04:17:45.419Z,70.26
2017-06-26T04:18:45.412Z,71.03
2017-06-26T04:19:45.410Z,70.45
2017-06-26T04:20:45.406Z,70.45
2017-06-26T04:21:45.403Z,70.93
2017-06-26T04:22:45.402Z,70.55
2017-06-26T04:23:45.398Z,69.87
2017-06-26T04:24:45.093Z,69.97
2017-06-26T04:25:45.390Z,69.97
2017-06-26T04:26:45.389Z,70.26
2017-06-26T04:27:45.386Z,69.78
2017-06-26T04:28:45.383Z,69.87
2017-06-26T04:29:45.379Z,69.68
2017-06-26T04:30:45.374Z,69.53
2017-06-26T04:31:45.373Z,69.97
2017-06-26T04:32:45.367Z,70.17
2017-06-26T04:33:45.365Z,69.91
2017-06-26T04:34:45.365Z,69.91
2017-06-26T04:35:45.359Z,70.01
2017-06-26T04:36:45.705Z,69.62
2017-06-26T04:37:45.356Z,69.72
2017-06-26T04:38:45.351Z,69.91
2017-06-26T04:39:45.347Z,69.81
2017-06-26T04:40:45.347Z,69.14
2017-06-26T04:41:45.339Z,68.95
2017-06-26T04:42:45.340Z,69.14
2017-06-26T04:43:45.335Z,68.76
2017-06-26T04:44:45.331Z,68.66
2017-06-26T04:45:45.028Z,69.05
2017-06-26T04:46:45.326Z,69.05
2017-06-26T04:47:45.322Z,68.76
2017-06-26T04:48:45.319Z,68.76
2017-06-26T04:49:45.321Z,68.95
2017-06-26T04:50:45.314Z,68.85
2017-06-26T04:51:45.312Z,69.43
2017-06-26T04:52:45.307Z,69.37
2017-06-26T04:53:45.306Z,69.46
2017-06-26T04:54:45.302Z,69.46
2017-06-26T04:55:44.997Z,68.98
2017-06-26T04:56:45.296Z,69.08
2017-06-26T04:57:45.298Z,68.98
2017-06-26T04:58:45.292Z,69.18
2017-06-26T04:59:45.291Z,69.08
2017-06-26T05:00:45.287Z,68.41
2017-06-26T05:01:45.282Z,68.12
2017-06-26T05:02:45.280Z,67.86
2017-06-26T05:03:45.279Z,67.96
2017-06-26T05:04:45.277Z,67.86
2017-06-26T05:05:45.274Z,67.96
2017-06-26T05:06:45.270Z,67.38
2017-06-26T05:07:45.268Z,67.38
2017-06-26T05:08:44.962Z,67.77
2017-06-26T05:09:45.261Z,68.06
2017-06-26T05:10:45.261Z,68.06
2017-06-26T05:11:45.257Z,67.58
2017-06-26T05:12:45.258Z,67.22
2017-06-26T05:13:45.255Z,67.32
2017-06-26T05:14:45.251Z,67.51
2017-06-26T05:15:45.248Z,67.13
2017-06-26T05:16:45.248Z,66.74
2017-06-26T05:17:45.243Z,66.65
2017-06-26T05:18:45.242Z,66.74
2017-06-26T05:19:45.241Z,66.46
2017-06-26T05:20:44.934Z,66.74
2017-06-26T05:21:45.237Z,66.65
2017-06-26T05:22:45.232Z,66.65
2017-06-26T05:23:45.231Z,66.39
2017-06-26T05:24:45.234Z,66.78
2017-06-26T05:25:45.232Z,65.91
2017-06-26T05:26:45.225Z,66.52
2017-06-26T05:27:45.223Z,65.94
2017-06-26T05:28:45.223Z,65.56
2017-06-26T05:29:44.916Z,65.5
2017-06-26T05:30:44.918Z,65.4
2017-06-26T05:31:45.220Z,64.82
2017-06-26T05:32:44.914Z,64.63
2017-06-26T05:33:45.219Z,64.05
2017-06-26T05:34:44.913Z,63.76
2017-06-26T05:35:45.213Z,63.67
2017-06-26T05:36:45.213Z,64.15
2017-06-26T05:37:44.924Z,64.25
2017-06-26T05:38:45.209Z,64.5
2017-06-26T05:39:45.208Z,64.31
2017-06-26T05:40:45.210Z,63.44
2017-06-26T05:41:45.206Z,64.21
2017-06-26T05:42:45.203Z,63.82
2017-06-26T05:43:45.205Z,64.31
2017-06-26T05:44:45.202Z,64.5
2017-06-26T05:45:45.205Z,63.73
2017-06-26T05:46:45.200Z,64.02
2017-06-26T05:47:45.199Z,63.44
2017-06-26T05:48:45.200Z,64.21
2017-06-26T05:49:45.196Z,64.02
2017-06-26T05:50:45.196Z,63.99
2017-06-26T05:51:45.194Z,63.51
2017-06-26T05:52:45.193Z,64.18
2017-06-26T05:53:45.191Z,63.99
2017-06-26T05:54:45.190Z,63.99
2017-06-26T05:55:45.217Z,64.28
2017-06-26T05:56:45.186Z,64.43
2017-06-26T05:57:45.182Z,64.47
2017-06-26T05:58:45.183Z,64.47
2017-06-26T05:59:45.182Z,64.76
2017-06-26T06:00:44.877Z,64.66
2017-06-26T06:01:45.181Z,64.28
2017-06-26T06:02:45.175Z,64.66
2017-06-26T06:03:45.172Z,64.47
2017-06-26T06:04:45.171Z,64.66
2017-06-26T06:05:45.168Z,64.66
2017-06-26T06:06:45.167Z,64.86
2017-06-26T06:07:45.166Z,64.86
2017-06-26T06:08:45.165Z,64.76
2017-06-26T06:09:45.162Z,64.47
2017-06-26T06:10:45.160Z,64.63
2017-06-26T06:11:45.157Z,64.82
2017-06-26T06:12:45.158Z,64.53
2017-06-26T06:13:45.155Z,64.82
2017-06-26T06:14:45.154Z,64.92
2017-06-26T06:15:45.151Z,65.11
2017-06-26T06:16:45.149Z,65.2
2017-06-26T06:17:45.146Z,65.69
2017-06-26T06:18:45.146Z,65.88
2017-06-26T06:19:45.143Z,65.5
2017-06-26T06:20:45.147Z,65.88
2017-06-26T06:21:45.140Z,65.97
2017-06-26T06:22:45.137Z,66.17
2017-06-26T06:23:45.135Z,66.36
2017-06-26T06:24:45.135Z,65.78
2017-06-26T06:25:45.131Z,65.43
2017-06-26T06:26:45.130Z,65.91
2017-06-26T06:27:45.129Z,65.63
2017-06-26T06:28:45.124Z,65.63
2017-06-26T06:29:45.126Z,65.72
2017-06-26T06:30:45.121Z,65.14
2017-06-26T06:31:45.118Z,64.76
2017-06-26T06:32:45.118Z,64.66
2017-06-26T06:33:45.117Z,64.66
2017-06-26T06:34:45.115Z,64.86
2017-06-26T06:35:45.117Z,65.05
2017-06-26T06:36:45.114Z,64.31
2017-06-26T06:37:45.112Z,64.31
2017-06-26T06:38:45.109Z,63.73
2017-06-26T06:39:45.107Z,63.82
2017-06-26T06:40:45.108Z,63.99
2017-06-26T06:41:45.105Z,64.28
2017-06-26T06:42:45.100Z,63.99
2017-06-26T06:43:45.100Z,63.99
2017-06-26T06:44:45.096Z,64.18
2017-06-26T06:45:45.096Z,63.99
2017-06-26T06:46:45.094Z,64.28
2017-06-26T06:47:45.094Z,63.51
2017-06-26T06:48:45.092Z,63.79
2017-06-26T06:49:45.093Z,63.6
2017-06-26T06:50:45.087Z,63.79
2017-06-26T06:51:45.086Z,63.51
2017-06-26T06:52:45.085Z,63.79
2017-06-26T06:53:45.083Z,64.21
2017-06-26T06:54:45.086Z,63.15
2017-06-26T06:55:45.079Z,63.06
2017-06-26T06:56:45.079Z,63.54
2017-06-26T06:57:44.774Z,63.44
2017-06-26T06:58:45.075Z,63.44
2017-06-26T06:59:45.074Z,62.96
2017-06-26T07:00:45.073Z,62.96
2017-06-26T07:01:45.074Z,62.7
2017-06-26T07:02:45.068Z,62.8
2017-06-26T07:03:45.073Z,62.41
2017-06-26T07:04:44.764Z,62.7
2017-06-26T07:05:45.065Z,62.8
2017-06-26T07:06:45.065Z,62.41
2017-06-26T07:07:45.063Z,62.7
2017-06-26T07:08:45.066Z,63.18
2017-06-26T07:09:44.759Z,62.99
2017-06-26T07:10:45.058Z,63.28
2017-06-26T07:11:45.060Z,63.18
2017-06-26T07:12:45.057Z,63.09
2017-06-26T07:13:45.053Z,63.06
2017-06-26T07:14:45.056Z,65.08
2017-06-26T07:15:45.056Z,65.63
2017-06-26T07:16:45.054Z,66.17
2017-06-26T07:17:45.052Z,66.61
2017-06-26T07:18:45.047Z,66.46
2017-06-26T07:19:45.082Z,67.67
2017-06-26T07:20:45.047Z,67.92
2017-06-26T07:21:45.042Z,69.04
2017-06-26T07:22:45.041Z,69.77
2017-06-26T07:23:45.038Z,69.68
2017-06-26T07:24:45.034Z,70.12
2017-06-26T07:25:45.032Z,70.18
2017-06-26T07:26:45.031Z,69.99
2017-06-26T07:27:44.725Z,70.28
2017-06-26T07:28:45.031Z,71.11
2017-06-26T07:29:45.024Z,71.11
2017-06-26T07:30:45.017Z,71.58
2017-06-26T07:31:45.015Z,72.31
2017-06-26T07:32:45.012Z,72.5
2017-06-26T07:33:44.705Z,72.31
2017-06-26T07:34:45.005Z,72.41
2017-06-26T07:35:44.705Z,72.69
2017-06-26T07:36:44.998Z,72.88
2017-06-26T07:37:44.998Z,72.98
2017-06-26T07:38:44.989Z,73.08
2017-06-26T07:39:44.984Z,72.85
2017-06-26T07:40:44.984Z,73.52
2017-06-26T07:41:44.978Z,73.52
2017-06-26T07:42:44.974Z,73.8
2017-06-26T07:43:44.668Z,73.8
2017-06-26T07:44:44.660Z,73.9
2017-06-26T07:45:44.963Z,74.48
2017-06-26T07:46:44.955Z,74.28
2017-06-26T07:47:44.952Z,74.38
2017-06-26T07:48:44.947Z,74.85
2017-06-26T07:49:44.944Z,74.76
2017-06-26T07:50:44.937Z,74.66
2017-06-26T07:51:44.933Z,75.09
2017-06-26T07:52:44.927Z,75.47
2017-06-26T07:53:44.923Z,75.56
2017-06-26T07:54:44.920Z,75.95
2017-06-26T07:55:44.916Z,76.37
2017-06-26T07:56:44.912Z,76.65
2017-06-26T07:57:44.604Z,76.46
2017-06-26T07:58:44.600Z,76.69
2017-06-26T07:59:44.902Z,77.55
2017-06-26T08:00:44.898Z,77.25
2017-06-26T08:01:44.892Z,77.38
2017-06-26T08:02:44.891Z,77.61
2017-06-26T08:03:44.888Z,77.94
2017-06-26T08:04:44.583Z,78.17
2017-06-26T08:05:44.888Z,78.11
2017-06-26T08:06:44.885Z,78.11
2017-06-26T08:07:44.884Z,78.44
2017-06-26T08:08:44.579Z,77.9
2017-06-26T08:09:44.881Z,77.46
2017-06-26T08:10:44.887Z,76.92
2017-06-26T08:11:44.890Z,76.76
2017-06-26T08:12:44.888Z,75.13
2017-06-26T08:13:44.893Z,73.82
2017-06-26T08:14:44.896Z,73.72
2017-06-26T08:15:44.900Z,72.85
2017-06-26T08:16:44.599Z,73.47
2017-06-26T08:17:44.610Z,73.21
2017-06-26T08:18:44.912Z,72.92
2017-06-26T08:19:44.918Z,73.35
2017-06-26T08:20:45.128Z,73.38
2017-06-26T08:21:44.929Z,72.55
2017-06-26T08:22:44.935Z,71.97
2017-06-26T08:23:44.940Z,71.3
2017-06-26T08:24:44.952Z,70.65
2017-06-26T08:25:44.955Z,69.26
2017-06-26T08:26:44.957Z,68.01
2017-06-26T08:27:44.962Z,68.78
2017-06-26T08:28:44.965Z,68.88
2017-06-26T08:29:44.973Z,68.65
2017-06-26T08:30:44.978Z,69.94
2017-06-26T08:31:44.984Z,70.04
2017-06-26T08:32:44.985Z,70.04
2017-06-26T08:33:44.993Z,68.78
2017-06-26T08:34:44.997Z,68.2
2017-06-26T08:35:44.698Z,68.49
2017-06-26T08:36:45.002Z,68.78
2017-06-26T08:37:45.007Z,69.36
2017-06-26T08:38:45.013Z,68.78
2017-06-26T08:39:45.023Z,69.1
2017-06-26T08:40:45.032Z,69.2
2017-06-26T08:41:45.026Z,67.08
2017-06-26T08:42:45.033Z,67.17
2017-06-26T08:43:45.037Z,67.08
2017-06-26T08:44:45.038Z,67.17
2017-06-26T08:45:45.044Z,67.66
2017-06-26T08:46:45.048Z,69.49
2017-06-26T08:47:45.054Z,68.95
2017-06-26T08:48:45.057Z,68.17
2017-06-26T08:49:45.061Z,67.33
2017-06-26T08:50:45.073Z,65.79
2017-06-26T08:51:45.074Z,65.98
2017-06-26T08:52:45.085Z,65.69
2017-06-26T08:53:45.093Z,66.88
2017-06-26T08:54:45.099Z,67.85
2017-06-26T08:55:45.105Z,66.05
2017-06-26T08:56:45.115Z,66.05
2017-06-26T08:57:45.121Z,66.34
2017-06-26T08:58:44.828Z,65.79
2017-06-26T08:59:45.141Z,64.82
2017-06-26T09:00:44.849Z,65.24
2017-06-26T09:01:45.163Z,66.02
2017-06-26T09:02:45.170Z,62.62
2017-06-26T09:03:45.178Z,63.59
2017-06-26T09:04:45.187Z,62.62
2017-06-26T09:05:45.199Z,61.55
2017-06-26T09:06:45.205Z,63.88
2017-06-26T09:07:45.215Z,64.07
2017-06-26T09:08:45.223Z,62.72
2017-06-26T09:09:45.532Z,62.72
2017-06-26T09:10:45.243Z,61.55
2017-06-26T09:11:45.253Z,62.72
2017-06-26T09:12:45.257Z,63.98
2017-06-26T09:13:45.274Z,63.49
2017-06-26T09:14:45.275Z,63.4
2017-06-26T09:15:45.283Z,64.65
2017-06-26T09:16:45.292Z,65.47
2017-06-26T09:17:45.295Z,66.53
2017-06-26T09:18:45.308Z,65.4
2017-06-26T09:19:45.318Z,63.65
2017-06-26T09:20:45.321Z,61.04
2017-06-26T09:21:45.327Z,61
2017-06-26T09:22:45.338Z,61.98
2017-06-26T09:23:45.344Z,61.85
2017-06-26T09:24:45.347Z,62.62
2017-06-26T09:25:45.354Z,63.98
2017-06-26T09:26:45.362Z,63.98
2017-06-26T09:27:45.371Z,63.88
2017-06-26T09:28:45.373Z,63.78
2017-06-26T09:29:45.078Z,65.14
2017-06-26T09:30:45.388Z,63.69
2017-06-26T09:31:45.391Z,63.98
2017-06-26T09:32:45.396Z,63.59
2017-06-26T09:33:45.408Z,64.56
2017-06-26T09:34:45.411Z,64.75
2017-06-26T09:35:45.416Z,62.04
2017-06-26T09:36:45.421Z,62.43
2017-06-26T09:37:45.426Z,67.08
2017-06-26T09:38:45.433Z,61.07
2017-06-26T09:39:45.442Z,61.75
2017-06-26T09:40:45.444Z,63.98
2017-06-26T09:41:45.459Z,63.37
2017-06-26T09:42:45.455Z,59.42
2017-06-26T09:43:45.461Z,63.69
2017-06-26T09:44:45.469Z,63.98
2017-06-26T09:45:45.470Z,60.88
2017-06-26T09:46:45.479Z,63.2
2017-06-26T09:47:45.484Z,63.88
2017-06-26T09:48:45.492Z,62.65
2017-06-26T09:49:45.498Z,63.33
2017-06-26T09:50:45.499Z,61.19
2017-06-26T09:51:45.504Z,61.58
2017-06-26T09:52:45.509Z,61.61
2017-06-26T09:53:45.514Z,59.38
2017-06-26T09:54:45.518Z,59.09
2017-06-26T09:55:45.530Z,65.5
2017-06-26T09:56:45.532Z,58.09
2017-06-26T09:57:45.538Z,60.23
2017-06-26T09:58:45.539Z,63.33
2017-06-26T09:59:45.546Z,55.87
2017-06-26T10:00:45.555Z,56.93
2017-06-26T10:01:45.556Z,58.77
2017-06-26T10:02:45.764Z,58.39
2017-06-26T10:03:45.565Z,59.84
2017-06-26T10:04:45.570Z,56.96
2017-06-26T10:05:45.581Z,57.93
2017-06-26T10:06:45.783Z,61.61
2017-06-26T10:07:45.587Z,61.84
2017-06-26T10:08:45.594Z,60.94
2017-06-26T10:09:45.292Z,60.06
2017-06-26T10:10:45.601Z,58.09
2017-06-26T10:11:45.608Z,58.67
2017-06-26T10:12:45.612Z,63.88
2017-06-26T10:13:45.315Z,59.91
2017-06-26T10:14:45.318Z,60.75
2017-06-26T10:15:45.625Z,58.04
2017-06-26T10:16:45.631Z,66.43
2017-06-26T10:17:45.638Z,58.69
2017-06-26T10:18:45.640Z,58.27
2017-06-26T10:19:45.642Z,62.21
2017-06-26T10:20:45.646Z,60.57
2017-06-26T10:21:45.652Z,58.63
2017-06-26T10:22:45.657Z,58.31
2017-06-26T10:23:45.694Z,60.63
2017-06-26T10:24:45.661Z,59.83
2017-06-26T10:25:45.669Z,63.69
2017-06-26T10:26:45.694Z,58.95
2017-06-26T10:27:45.675Z,66.69
2017-06-26T10:28:45.673Z,62.44
2017-06-26T10:29:45.674Z,62.89
2017-06-26T10:30:45.377Z,62.89
2017-06-26T10:31:45.681Z,59.6
2017-06-26T10:32:45.683Z,59.38
2017-06-26T10:33:45.689Z,69.04
2017-06-26T10:34:45.686Z,58.12
2017-06-26T10:35:45.689Z,62.54
2017-06-26T10:36:45.690Z,63.5
2017-06-26T10:37:45.689Z,57.52
2017-06-26T10:38:45.695Z,66.97
2017-06-26T10:39:45.695Z,61.57
2017-06-26T10:40:45.699Z,59.77
2017-06-26T10:41:45.705Z,60.54
2017-06-26T10:42:45.399Z,64.69
2017-06-26T10:43:45.702Z,59.67
2017-06-26T10:44:45.705Z,64.4
2017-06-26T10:45:45.705Z,57.48
2017-06-26T10:46:45.720Z,59.58
2017-06-26T10:47:45.713Z,58.42
2017-06-26T10:48:45.719Z,59.28
2017-06-26T10:49:45.717Z,61.31
2017-06-26T10:50:45.717Z,59.96
2017-06-26T10:51:45.719Z,63.53
2017-06-26T10:52:45.718Z,59.58
2017-06-26T10:53:45.723Z,61.31
2017-06-26T10:54:45.725Z,62.76
2017-06-26T10:55:45.724Z,60.96
2017-06-26T10:56:45.725Z,59.22
2017-06-26T10:57:45.725Z,59.22
2017-06-26T10:58:45.727Z,63.69
2017-06-26T10:59:45.732Z,64.76
2017-06-26T11:00:45.733Z,59.63
2017-06-26T11:01:45.741Z,61.76
2017-06-26T11:02:45.737Z,63.31
2017-06-26T11:03:45.739Z,58.7
2017-06-26T11:04:45.438Z,59.08
2017-06-26T11:05:45.740Z,60.82
2017-06-26T11:06:45.743Z,60.05
2017-06-26T11:07:45.748Z,60.08
2017-06-26T11:08:45.750Z,57.73
2017-06-26T11:09:45.758Z,62.18
2017-06-26T11:10:45.753Z,59.4
2017-06-26T11:11:45.755Z,61.43
2017-06-26T11:12:45.757Z,59.5
2017-06-26T11:13:45.763Z,59.21
2017-06-26T11:14:45.761Z,60.47
2017-06-26T11:15:45.767Z,60.75
2017-06-26T11:16:45.767Z,59.63
2017-06-26T11:17:45.771Z,59.63
2017-06-26T11:18:45.473Z,59.75
2017-06-26T11:19:45.775Z,60.82
2017-06-26T11:20:45.778Z,59.46
2017-06-26T11:21:45.786Z,57.23
2017-06-26T11:22:45.783Z,58.39
2017-06-26T11:23:45.787Z,57.71
2017-06-26T11:24:45.789Z,58.59
2017-06-26T11:25:45.789Z,58.78
2017-06-26T11:26:45.795Z,55.49
2017-06-26T11:27:45.800Z,56.72
2017-06-26T11:28:45.805Z,59.14
2017-06-26T11:29:45.805Z,59.33
2017-06-26T11:30:45.812Z,60.01
2017-06-26T11:31:45.817Z,60.21
2017-06-26T11:32:45.813Z,59.91
2017-06-26T11:33:45.817Z,57.98
2017-06-26T11:34:45.822Z,52.46
2017-06-26T11:35:45.828Z,56.52
2017-06-26T11:36:45.825Z,57.69
2017-06-26T11:37:45.830Z,57.79
2017-06-26T11:38:45.831Z,57.66
2017-06-26T11:39:45.835Z,57.08
2017-06-26T11:40:45.837Z,58.72
2017-06-26T11:41:45.842Z,56.98
2017-06-26T11:42:45.843Z,57.56
2017-06-26T11:43:45.847Z,56.3
2017-06-26T11:44:45.847Z,57.54
2017-06-26T11:45:45.849Z,56.37
2017-06-26T11:46:45.853Z,53.96
2017-06-26T11:47:45.855Z,54.51
2017-06-26T11:48:45.856Z,54.71
2017-06-26T11:49:45.862Z,57.09
2017-06-26T11:50:45.859Z,54.41
2017-06-26T11:51:45.866Z,54
2017-06-26T11:52:45.863Z,56.51
2017-06-26T11:53:45.865Z,56.71
2017-06-26T11:54:45.868Z,56.71
2017-06-26T11:55:45.870Z,55.09
2017-06-26T11:56:45.871Z,56.45
2017-06-26T11:57:45.874Z,54.03
2017-06-26T11:58:45.872Z,54.32
2017-06-26T11:59:45.873Z,54.22
2017-06-26T12:00:45.876Z,53.93
2017-06-26T12:01:45.877Z,54.9
2017-06-26T12:02:45.884Z,55.47
2017-06-26T12:03:45.882Z,55.29
2017-06-26T12:04:45.883Z,54.03
2017-06-26T12:05:45.885Z,54.8
2017-06-26T12:06:45.583Z,54.8
2017-06-26T12:07:45.889Z,54.22
2017-06-26T12:08:45.890Z,53.06
2017-06-26T12:09:45.894Z,53.96
2017-06-26T12:10:45.893Z,53.09
2017-06-26T12:11:45.894Z,53.96
2017-06-26T12:12:45.897Z,52.89
2017-06-26T12:13:45.895Z,52.8
2017-06-26T12:14:45.904Z,52.7
2017-06-26T12:15:45.904Z,51.64
2017-06-26T12:16:45.903Z,52.12
2017-06-26T12:17:45.908Z,52.51
2017-06-26T12:18:45.907Z,52.24
2017-06-26T12:19:45.908Z,50.89
2017-06-26T12:20:45.911Z,47.79
2017-06-26T12:21:45.913Z,48.95
2017-06-26T12:22:45.917Z,47.02
2017-06-26T12:23:45.919Z,47.62
2017-06-26T12:24:45.922Z,47.02
2017-06-26T12:25:45.921Z,48.47
2017-06-26T12:26:45.923Z,48.76
2017-06-26T12:27:45.925Z,48.86
2017-06-26T12:28:45.929Z,48.37
2017-06-26T12:29:45.625Z,49.15
2017-06-26T12:30:45.933Z,49.05
2017-06-26T12:31:45.934Z,48.76
2017-06-26T12:32:45.937Z,49.05
2017-06-26T12:33:45.942Z,48.95
2017-06-26T12:34:45.944Z,48.76
2017-06-26T12:35:45.942Z,48.59
2017-06-26T12:36:45.946Z,47.81
2017-06-26T12:37:45.947Z,48.39
2017-06-26T12:38:45.950Z,48.79
2017-06-26T12:39:45.950Z,48.88
2017-06-26T12:40:45.958Z,49
2017-06-26T12:41:45.956Z,48.81
2017-06-26T12:42:45.960Z,47.45
2017-06-26T12:43:45.659Z,46.77
2017-06-26T12:44:45.965Z,47.74
2017-06-26T12:45:45.970Z,47.45
2017-06-26T12:46:45.667Z,46.22
2017-06-26T12:47:45.972Z,45.73
2017-06-26T12:48:46.324Z,45.44
2017-06-26T12:49:45.975Z,46.12
2017-06-26T12:50:45.980Z,45.44
2017-06-26T12:51:45.986Z,46
2017-06-26T12:52:45.987Z,45.13
2017-06-26T12:53:45.992Z,46.09
2017-06-26T12:54:45.991Z,46.09
2017-06-26T12:55:45.997Z,46.48